Time;durP1;ratioP1;P1;durP2;ratioP2;P2;SDS_P1;SDS_P2;PMS_P1;PMS_P2;Temp;Humidity;BMP_temperature;BMP_pressure;BME280_temperature;BME280_humidity;BME280_pressure;Samples;Min_cycle;Max_cycle;Signal;HPM_P1;HPM_P2
2022/03/28 00:02:03;;;;;;;13.68;4.10;;;16.10;29.20;;;;;;6270699;28;20029;-70
2022/03/28 00:05:05;;;;;;;9.70;5.25;;;16.10;29.30;;;;;;6288067;28;20037;-70
2022/03/28 00:08:06;;;;;;;9.70;4.70;;;16.10;29.60;;;;;;6271735;28;20474;-70
2022/03/28 00:11:07;;;;;;;9.40;4.10;;;16.10;29.70;;;;;;6268853;28;20513;-69
2022/03/28 00:14:08;;;;;;;12.90;5.03;;;16.00;29.60;;;;;;6272065;28;20041;-70
2022/03/28 00:17:09;;;;;;;8.35;4.50;;;16.00;29.40;;;;;;6272714;28;20466;-70
2022/03/28 00:20:11;;;;;;;7.82;4.50;;;16.00;29.40;;;;;;6271846;28;20033;-70
2022/03/28 00:23:12;;;;;;;10.75;4.88;;;16.00;29.80;;;;;;6271340;28;20067;-70
2022/03/28 00:26:13;;;;;;;12.15;5.00;;;16.00;29.60;;;;;;6272659;28;20021;-70
2022/03/28 00:29:14;;;;;;;11.68;5.05;;;16.00;29.70;;;;;;6271677;28;20128;-70
2022/03/28 00:32:14;;;;;;;16.67;4.80;;;15.90;29.70;;;;;;6270877;28;20029;-70
2022/03/28 00:35:17;;;;;;;7.97;4.55;;;15.90;29.80;;;;;;6269084;28;20363;-70
2022/03/28 00:38:18;;;;;;;17.95;4.45;;;15.90;30.00;;;;;;6263464;28;20076;-70
2022/03/28 00:41:19;;;;;;;11.52;4.80;;;15.90;30.50;;;;;;6271849;28;20351;-71
2022/03/28 00:44:20;;;;;;;11.95;4.95;;;15.90;30.60;;;;;;6270718;28;20028;-70
2022/03/28 00:47:21;;;;;;;12.23;4.57;;;15.80;30.40;;;;;;6269774;28;20469;-70
2022/03/28 00:50:23;;;;;;;10.50;4.88;;;15.80;30.30;;;;;;6270883;28;20028;-70
2022/03/28 00:53:25;;;;;;;10.90;5.07;;;15.80;30.70;;;;;;6269066;28;20120;-70
2022/03/28 00:56:26;;;;;;;9.38;4.60;;;15.80;30.80;;;;;;6271504;28;20052;-70
2022/03/28 00:59:32;;;;;;;12.48;5.28;;;15.80;30.90;;;;;;6272027;28;20079;-70
2022/03/28 01:02:33;;;;;;;13.52;4.47;;;15.70;30.80;;;;;;6263883;28;20037;-70
2022/03/28 01:05:34;;;;;;;8.45;4.60;;;15.70;30.80;;;;;;6268341;28;20033;-70
2022/03/28 01:08:35;;;;;;;10.68;4.55;;;15.70;31.00;;;;;;6261882;28;20045;-70
2022/03/28 01:11:37;;;;;;;9.40;3.83;;;15.70;31.40;;;;;;6272013;28;20045;-70
2022/03/28 01:14:38;;;;;;;8.77;4.15;;;15.60;31.20;;;;;;6269562;28;20068;-70
2022/03/28 01:21:04;;;;;;;8.27;3.88;;;15.50;30.80;;;;;;6265419;28;20028;-71
2022/03/28 01:24:05;;;;;;;9.05;4.63;;;15.40;30.50;;;;;;6265770;28;20041;-72
2022/03/28 01:27:07;;;;;;;6.55;3.67;;;15.40;30.30;;;;;;6251436;28;20067;-71
2022/03/28 01:30:08;;;;;;;8.27;3.88;;;15.30;30.70;;;;;;6266439;28;20057;-71
2022/03/28 01:33:09;;;;;;;8.32;3.97;;;15.30;30.10;;;;;;6268500;28;20037;-71
2022/03/28 01:36:10;;;;;;;10.07;3.95;;;15.30;30.00;;;;;;6268798;28;20032;-71
2022/03/28 01:39:11;;;;;;;8.75;3.25;;;15.20;29.90;;;;;;6260715;28;20140;-71
2022/03/28 01:42:12;;;;;;;10.80;3.70;;;15.30;29.90;;;;;;6282205;28;20037;-69
2022/03/28 01:45:14;;;;;;;5.53;3.22;;;15.30;30.00;;;;;;6267253;28;20120;-69
2022/03/28 01:48:15;;;;;;;10.27;3.83;;;15.20;29.80;;;;;;6266290;28;20069;-69
2022/03/28 01:51:16;;;;;;;8.50;4.03;;;15.20;29.60;;;;;;6267882;28;20037;-71
2022/03/28 01:54:18;;;;;;;7.70;3.30;;;15.20;29.50;;;;;;6282787;28;20446;-70
2022/03/28 01:57:18;;;;;;;8.15;4.25;;;15.20;29.60;;;;;;6248236;28;20373;-70
2022/03/28 02:00:21;;;;;;;12.75;3.45;;;15.10;29.60;;;;;;6261304;28;20045;-70
2022/03/28 02:03:22;;;;;;;6.50;3.17;;;15.10;29.60;;;;;;6282333;28;20105;-69
2022/03/28 02:06:23;;;;;;;6.25;3.33;;;15.00;29.60;;;;;;6258415;28;20126;-69
2022/03/28 02:09:24;;;;;;;10.38;4.20;;;15.00;29.60;;;;;;6264423;28;20041;-70
2022/03/28 02:12:25;;;;;;;11.95;4.45;;;15.00;30.00;;;;;;6251162;28;20055;-70
2022/03/28 02:15:26;;;;;;;11.07;4.63;;;15.00;31.00;;;;;;6266428;28;20033;-72
2022/03/28 02:18:27;;;;;;;9.90;4.80;;;14.90;32.30;;;;;;6264020;28;20094;-71
2022/03/28 02:21:28;;;;;;;9.13;5.18;;;14.80;33.30;;;;;;6263061;28;20032;-70
2022/03/28 02:24:29;;;;;;;8.52;5.00;;;14.80;33.50;;;;;;6266502;28;20037;-70
2022/03/28 02:27:30;;;;;;;18.60;5.05;;;14.70;33.60;;;;;;6265642;28;20037;-70
2022/03/28 02:30:31;;;;;;;13.10;5.47;;;14.60;33.90;;;;;;6266574;28;20095;-70
2022/03/28 02:33:33;;;;;;;7.97;4.30;;;14.60;34.20;;;;;;6265000;28;20102;-70
2022/03/28 02:36:34;;;;;;;9.50;4.88;;;14.50;34.40;;;;;;6266309;28;20040;-70
2022/03/28 02:39:34;;;;;;;8.43;4.70;;;14.50;34.60;;;;;;6266762;28;20147;-70
2022/03/28 02:42:35;;;;;;;11.05;5.18;;;14.50;34.90;;;;;;6267856;28;20029;-70
2022/03/28 02:45:37;;;;;;;12.93;5.53;;;14.40;35.10;;;;;;6266185;28;20037;-70
2022/03/28 02:48:38;;;;;;;11.23;5.00;;;14.40;34.90;;;;;;6265675;28;20064;-70
2022/03/28 02:51:39;;;;;;;11.63;4.68;;;14.40;34.80;;;;;;6265457;28;20057;-70
2022/03/28 02:54:40;;;;;;;7.60;4.15;;;14.40;34.90;;;;;;6264040;28;20033;-70
2022/03/28 02:57:41;;;;;;;12.90;4.75;;;14.40;35.00;;;;;;6265622;28;20060;-70
2022/03/28 03:00:43;;;;;;;8.27;3.88;;;14.40;35.20;;;;;;6266695;28;20045;-70
2022/03/28 03:03:44;;;;;;;7.80;4.35;;;14.40;35.30;;;;;;6280324;28;20055;-71
2022/03/28 03:06:44;;;;;;;7.97;3.80;;;14.30;35.50;;;;;;6263766;28;20038;-70
2022/03/28 03:09:48;;;;;;;9.63;4.22;;;14.30;35.40;;;;;;6266462;28;20037;-70
2022/03/28 03:12:48;;;;;;;8.65;3.80;;;14.30;35.30;;;;;;6265380;28;20029;-70
2022/03/28 03:15:49;;;;;;;9.43;4.68;;;14.30;35.30;;;;;;6266603;28;20047;-70
2022/03/28 03:18:50;;;;;;;11.60;5.05;;;14.30;35.20;;;;;;6265565;28;20033;-70
2022/03/28 03:21:51;;;;;;;8.85;4.55;;;14.30;35.40;;;;;;6265446;28;20030;-70
2022/03/28 03:24:52;;;;;;;12.30;4.75;;;14.30;35.50;;;;;;6260111;28;20128;-70
2022/03/28 03:27:53;;;;;;;8.30;3.65;;;14.30;35.50;;;;;;6250066;28;20044;-72
2022/03/28 03:30:54;;;;;;;10.88;3.58;;;14.30;34.90;;;;;;6266163;28;20043;-69
2022/03/28 03:33:54;;;;;;;7.72;4.18;;;14.20;34.20;;;;;;6270578;28;20033;-70
2022/03/28 03:36:55;;;;;;;8.38;3.65;;;14.20;33.80;;;;;;6270896;28;20061;-70
2022/03/28 03:39:56;;;;;;;10.23;4.32;;;14.10;33.40;;;;;;6286542;28;20048;-70
2022/03/28 03:42:57;;;;;;;7.03;3.97;;;14.10;33.30;;;;;;6268548;28;20033;-70
2022/03/28 03:45:58;;;;;;;11.82;3.83;;;14.10;33.20;;;;;;6270854;28;20117;-71
2022/03/28 03:48:59;;;;;;;7.78;3.72;;;14.10;33.00;;;;;;6267586;28;20045;-72
2022/03/28 03:52:00;;;;;;;12.30;4.03;;;14.10;32.80;;;;;;6269375;28;20094;-71
2022/03/28 03:55:01;;;;;;;9.55;4.28;;;14.10;32.50;;;;;;6268429;28;20102;-71
2022/03/28 03:58:02;;;;;;;6.53;3.50;;;14.10;32.30;;;;;;6271785;28;20033;-70
2022/03/28 04:01:04;;;;;;;9.32;3.72;;;14.10;32.00;;;;;;6267814;28;20048;-71
2022/03/28 04:04:05;;;;;;;7.20;4.18;;;14.10;31.90;;;;;;6260352;28;20033;-71
2022/03/28 04:07:06;;;;;;;9.80;4.53;;;14.00;31.80;;;;;;6268305;28;20045;-72
2022/03/28 04:10:07;;;;;;;24.63;4.10;;;14.00;31.70;;;;;;6268894;28;20197;-71
2022/03/28 04:13:10;;;;;;;7.72;4.13;;;14.00;31.70;;;;;;6270726;28;21053;-71
2022/03/28 04:16:11;;;;;;;8.73;4.07;;;14.00;32.40;;;;;;6266355;28;20505;-71
2022/03/28 04:19:13;;;;;;;10.15;4.28;;;14.00;31.70;;;;;;6268993;28;20073;-71
2022/03/28 04:22:13;;;;;;;9.85;3.88;;;14.00;31.80;;;;;;6259775;28;20057;-71
2022/03/28 04:25:15;;;;;;;7.88;4.05;;;14.00;31.90;;;;;;6257684;28;20044;-71
2022/03/28 04:28:16;;;;;;;8.02;3.75;;;14.00;32.00;;;;;;6267788;28;20672;-71
2022/03/28 04:31:17;;;;;;;11.00;3.95;;;13.90;31.90;;;;;;6269494;28;20356;-71
2022/03/28 04:34:18;;;;;;;9.63;4.20;;;13.90;32.00;;;;;;6257869;28;20037;-70
2022/03/28 04:37:19;;;;;;;9.88;4.38;;;13.90;32.00;;;;;;6267436;28;20370;-70
2022/03/28 04:40:20;;;;;;;7.80;4.38;;;13.90;32.00;;;;;;6267019;28;20060;-70
2022/03/28 04:43:22;;;;;;;10.10;4.32;;;13.80;32.10;;;;;;6263644;28;20033;-70
2022/03/28 04:46:23;;;;;;;11.77;4.00;;;13.80;32.10;;;;;;6263447;28;20037;-70
2022/03/28 04:49:24;;;;;;;6.63;3.38;;;13.80;32.20;;;;;;6268329;28;20041;-70
2022/03/28 04:52:25;;;;;;;7.65;4.25;;;13.80;32.00;;;;;;6266114;28;20061;-70
2022/03/28 04:55:27;;;;;;;7.25;3.92;;;13.70;32.00;;;;;;6276146;28;20029;-70
2022/03/28 04:58:28;;;;;;;12.05;4.63;;;13.70;32.00;;;;;;6273635;28;20110;-70
2022/03/28 05:01:29;;;;;;;12.20;4.70;;;13.70;32.00;;;;;;6266025;28;20032;-71
2022/03/28 05:04:29;;;;;;;13.98;5.45;;;13.70;33.10;;;;;;6269266;28;20458;-70
2022/03/28 05:07:31;;;;;;;9.88;5.10;;;13.70;34.90;;;;;;6250591;28;20049;-71
2022/03/28 05:10:32;;;;;;;13.50;4.97;;;13.60;36.60;;;;;;6266454;28;20123;-70
2022/03/28 05:13:33;;;;;;;12.98;4.60;;;13.50;36.70;;;;;;6267359;28;20059;-70
2022/03/28 05:16:34;;;;;;;13.80;5.63;;;13.40;36.90;;;;;;6260735;28;20154;-71
2022/03/28 05:19:34;;;;;;;9.45;4.57;;;13.40;36.80;;;;;;6275003;28;20042;-71
2022/03/28 05:22:36;;;;;;;60.60;7.43;;;13.30;36.90;;;;;;6262376;28;20060;-70
2022/03/28 05:25:37;;;;;;;11.48;5.03;;;13.30;37.20;;;;;;6265725;28;20079;-70
2022/03/28 05:28:37;;;;;;;8.98;4.60;;;13.30;37.30;;;;;;6266157;28;20041;-70
2022/03/28 05:31:38;;;;;;;12.55;4.45;;;13.30;37.60;;;;;;6267892;28;20041;-71
2022/03/28 05:34:39;;;;;;;19.20;5.38;;;13.30;37.90;;;;;;6265913;28;20481;-69
2022/03/28 05:37:41;;;;;;;9.30;4.43;;;13.20;37.70;;;;;;6263134;28;20037;-70
2022/03/28 05:40:42;;;;;;;10.38;4.28;;;13.20;38.20;;;;;;6258544;28;20068;-71
2022/03/28 05:43:43;;;;;;;7.88;4.35;;;13.20;38.30;;;;;;6263251;28;20365;-70
2022/03/28 05:46:44;;;;;;;11.15;5.20;;;13.20;38.30;;;;;;6253784;28;20044;-72
2022/03/28 05:49:45;;;;;;;9.38;4.22;;;13.20;38.20;;;;;;6272257;28;20465;-72
2022/03/28 05:52:45;;;;;;;9.57;4.65;;;13.10;38.30;;;;;;6263039;28;20115;-71
2022/03/28 05:55:46;;;;;;;10.98;5.07;;;13.10;38.30;;;;;;6266714;28;20048;-70
2022/03/28 05:58:47;;;;;;;15.65;4.70;;;13.10;38.60;;;;;;6263832;28;20045;-72
2022/03/28 06:01:48;;;;;;;12.38;4.82;;;13.00;38.60;;;;;;6262090;28;20030;-72
2022/03/28 06:04:50;;;;;;;14.45;4.43;;;13.00;38.80;;;;;;6263770;28;20036;-68
2022/03/28 06:08:43;;;;;;;19.90;5.03;;;12.90;39.10;;;;;;5168054;28;22006;-68
2022/03/28 06:12:03;;;;;;;12.73;4.45;;;12.90;39.30;;;;;;4922032;28;22283;-71
2022/03/28 06:15:24;;;;;;;10.23;4.43;;;12.90;39.50;;;;;;4957203;28;21382;-71
2022/03/28 06:18:43;;;;;;;19.27;4.60;;;12.80;39.40;;;;;;4958662;28;22273;-69
2022/03/28 06:22:05;;;;;;;14.13;5.25;;;12.70;39.40;;;;;;5153241;28;22074;-69
2022/03/28 06:25:28;;;;;;;8.18;4.18;;;12.70;39.50;;;;;;5126448;28;20076;-71
2022/03/28 06:28:50;;;;;;;24.55;4.85;;;12.70;39.60;;;;;;4997499;28;21693;-69
2022/03/28 06:32:12;;;;;;;10.45;4.28;;;12.70;39.60;;;;;;5059425;28;20038;-70
2022/03/28 06:36:03;;;;;;;13.15;5.20;;;12.80;39.60;;;;;;5171935;28;22015;-69
2022/03/28 06:39:43;;;;;;;8.98;4.50;;;12.70;39.40;;;;;;5100919;28;21802;-69
2022/03/28 06:43:27;;;;;;;10.35;4.38;;;13.10;40.10;;;;;;5192279;28;22102;-69
2022/03/28 06:47:33;;;;;;;12.27;4.13;;;13.00;39.10;;;;;;5227971;28;22089;-69
2022/03/28 06:51:23;;;;;;;11.23;4.03;;;13.10;38.90;;;;;;5193428;28;21938;-68
2022/03/28 06:54:58;;;;;;;21.65;5.82;;;13.20;38.60;;;;;;5159209;28;23074;-70
2022/03/28 06:58:42;;;;;;;8.25;4.78;;;13.40;38.40;;;;;;5231677;28;21997;-69
2022/03/28 07:02:16;;;;;;;12.70;5.10;;;13.50;38.10;;;;;;5165893;28;21140;-70
2022/03/28 07:06:03;;;;;;;31.35;10.95;;;13.70;37.60;;;;;;5160082;28;22049;-69
2022/03/28 07:09:38;;;;;;;15.13;5.47;;;13.80;37.40;;;;;;5176372;28;22124;-69
2022/03/28 07:13:13;;;;;;;15.30;5.80;;;14.00;36.70;;;;;;5163118;28;22110;-69
2022/03/28 07:16:45;;;;;;;13.65;5.18;;;14.10;36.40;;;;;;5199581;28;22108;-69
2022/03/28 07:20:17;;;;;;;10.48;5.47;;;14.20;36.30;;;;;;5170812;28;21928;-69
2022/03/28 07:23:58;;;;;;;22.48;6.00;;;14.20;36.00;;;;;;5222647;28;21190;-69
2022/03/28 07:27:27;;;;;;;14.07;5.53;;;14.50;36.00;;;;;;5244827;28;27731;-69
2022/03/28 07:30:55;;;;;;;12.00;5.70;;;14.50;35.60;;;;;;5180528;28;22382;-69
2022/03/28 07:34:41;;;;;;;12.83;4.83;;;14.60;35.60;;;;;;5151656;28;22758;-70
2022/03/28 07:38:23;;;;;;;14.13;5.28;;;14.60;35.90;;;;;;5122937;28;21856;-69
2022/03/28 07:42:13;;;;;;;22.23;5.57;;;14.60;35.30;;;;;;5200408;28;21937;-69
2022/03/28 07:49:43;;;;;;;13.85;5.78;;;14.90;35.10;;;;;;5172567;28;21891;-69
2022/03/28 07:53:06;;;;;;;10.98;5.20;;;15.00;35.10;;;;;;5168393;28;21215;-70
2022/03/28 08:00:25;;;;;;;12.80;6.15;;;15.40;34.20;;;;;;5162716;28;20045;-69
2022/03/28 08:03:51;;;;;;;11.38;5.18;;;15.50;34.00;;;;;;5237954;28;22138;-70
2022/03/28 08:07:23;;;;;;;16.27;5.45;;;15.70;33.60;;;;;;5107612;28;22166;-69
2022/03/28 08:14:37;;;;;;;18.27;7.43;;;16.00;33.60;;;;;;5179363;28;22025;-71
2022/03/28 08:18:17;;;;;;;12.70;5.85;;;16.10;32.60;;;;;;5132735;28;21126;-69
2022/03/28 08:22:00;;;;;;;11.90;6.03;;;16.20;32.20;;;;;;5132087;28;22080;-69
2022/03/28 08:29:17;;;;;;;11.45;5.30;;;16.40;31.70;;;;;;5165526;28;22028;-71
2022/03/28 08:33:01;;;;;;;12.13;5.32;;;16.60;31.70;;;;;;5094394;28;21112;-69
2022/03/28 08:40:36;;;;;;;20.02;5.78;;;16.90;30.10;;;;;;5222813;28;20038;-69
2022/03/28 08:44:14;;;;;;;12.00;5.55;;;17.10;30.10;;;;;;5178138;28;20073;-69
2022/03/28 08:47:52;;;;;;;12.75;5.07;;;17.20;30.00;;;;;;5201606;28;22899;-70
2022/03/28 08:51:44;;;;;;;13.43;5.72;;;17.50;30.00;;;;;;5102393;28;22117;-69
2022/03/28 08:55:36;;;;;;;15.95;6.18;;;17.70;29.60;;;;;;5167489;28;21871;-71
2022/03/28 08:59:12;;;;;;;15.20;6.72;;;17.90;29.90;;;;;;5220984;28;20029;-70
2022/03/28 09:03:06;;;;;;;19.13;7.28;;;18.00;29.20;;;;;;5164496;28;22933;-72
2022/03/28 09:06:37;;;;;;;17.92;6.85;;;18.00;28.90;;;;;;5125888;28;22649;-69
2022/03/28 09:10:34;;;;;;;17.20;7.03;;;18.10;28.90;;;;;;5119766;28;21144;-71
2022/03/28 20:32:24;;;;;;;8.82;4.80;;;20.50;24.30;;;;;;5592458;22;23136;-71
2022/03/28 20:35:26;;;;;;;12.18;5.95;;;20.50;24.20;;;;;;6406205;23;20886;-72
2022/03/28 20:38:27;;;;;;;15.25;5.13;;;20.40;24.20;;;;;;6241206;28;20037;-71
2022/03/28 20:41:28;;;;;;;11.25;4.90;;;20.40;24.30;;;;;;6244506;28;20033;-70
2022/03/28 20:44:29;;;;;;;14.40;5.80;;;20.30;24.20;;;;;;6244080;28;20052;-70
2022/03/28 20:47:31;;;;;;;12.60;5.72;;;20.30;24.30;;;;;;6244862;28;20041;-72
2022/03/28 20:50:31;;;;;;;11.38;5.28;;;20.30;24.30;;;;;;6222889;28;20045;-71
2022/03/28 20:53:32;;;;;;;18.25;6.13;;;20.20;24.40;;;;;;6227995;28;20512;-71
2022/03/28 20:56:33;;;;;;;12.32;5.28;;;20.20;24.50;;;;;;6229007;28;20045;-72
2022/03/28 20:59:34;;;;;;;11.02;4.90;;;20.20;24.40;;;;;;6246928;28;20474;-70
2022/03/28 21:02:35;;;;;;;12.30;5.55;;;20.20;24.40;;;;;;6225655;28;20095;-70
2022/03/28 21:05:37;;;;;;;14.75;5.47;;;20.20;24.40;;;;;;6248231;28;20068;-71
2022/03/28 21:08:37;;;;;;;17.33;5.90;;;20.20;24.40;;;;;;6247900;28;20061;-71
2022/03/28 21:11:39;;;;;;;9.48;5.10;;;20.20;24.50;;;;;;6229451;28;20063;-70
2022/03/28 21:14:41;;;;;;;9.35;5.28;;;20.20;24.70;;;;;;6213266;28;20488;-70
2022/03/28 21:17:43;;;;;;;9.05;5.03;;;20.10;24.90;;;;;;6226148;28;20030;-71
2022/03/28 21:20:45;;;;;;;10.73;5.05;;;20.10;25.00;;;;;;6245776;28;20071;-72
2022/03/28 21:23:46;;;;;;;16.33;5.68;;;20.00;25.10;;;;;;6245696;28;20037;-71
2022/03/28 21:26:47;;;;;;;18.73;5.10;;;19.90;25.20;;;;;;6246413;28;20033;-70
2022/03/28 21:29:48;;;;;;;9.85;5.13;;;19.90;25.20;;;;;;6246761;28;20403;-71
2022/03/28 21:32:49;;;;;;;18.45;5.15;;;19.90;25.30;;;;;;6229029;28;20052;-71
2022/03/28 21:35:50;;;;;;;14.75;5.13;;;19.80;25.30;;;;;;6228540;28;20374;-70
2022/03/28 21:38:51;;;;;;;9.48;4.70;;;19.80;25.40;;;;;;6246269;28;20037;-70
2022/03/28 21:41:52;;;;;;;11.15;5.30;;;19.80;25.60;;;;;;6246187;28;20030;-70
2022/03/28 21:44:53;;;;;;;11.63;5.03;;;19.70;25.60;;;;;;6229362;28;20037;-70
2022/03/28 21:47:54;;;;;;;13.52;5.03;;;19.60;25.70;;;;;;6229786;28;20462;-71
2022/03/28 21:50:55;;;;;;;11.68;5.70;;;19.50;26.00;;;;;;6247180;28;20088;-70
2022/03/28 21:53:56;;;;;;;10.32;5.05;;;19.40;26.30;;;;;;6229503;28;20383;-70
2022/03/28 21:56:57;;;;;;;12.18;5.45;;;19.30;26.40;;;;;;6247647;28;20041;-71
2022/03/28 21:59:58;;;;;;;8.02;4.95;;;19.30;26.50;;;;;;6247200;28;20063;-70
2022/03/28 22:03:03;;;;;;;9.57;5.25;;;19.20;26.60;;;;;;6229217;28;20045;-70
2022/03/28 22:06:04;;;;;;;11.20;4.88;;;19.10;26.50;;;;;;6246293;28;20041;-70
2022/03/28 22:09:05;;;;;;;8.88;4.57;;;19.10;26.50;;;;;;6247144;28;20041;-70
2022/03/28 22:12:06;;;;;;;10.55;5.07;;;19.10;26.50;;;;;;6246655;28;20068;-70
2022/03/28 22:15:07;;;;;;;13.23;5.07;;;19.10;26.70;;;;;;6247184;28;20042;-70
2022/03/28 22:18:08;;;;;;;16.40;5.50;;;19.10;26.80;;;;;;6247152;28;20038;-70
2022/03/28 22:21:09;;;;;;;10.13;5.32;;;19.10;26.90;;;;;;6246066;28;20045;-70
2022/03/28 22:24:10;;;;;;;10.43;5.40;;;19.00;26.90;;;;;;6247258;28;20049;-70
2022/03/28 22:27:11;;;;;;;11.48;5.65;;;19.00;26.80;;;;;;6246359;28;20061;-70
2022/03/28 22:30:12;;;;;;;11.23;5.45;;;19.10;26.80;;;;;;6229708;28;20092;-71
2022/03/28 22:33:14;;;;;;;12.38;4.85;;;19.10;27.00;;;;;;6246038;28;20099;-70
2022/03/28 22:36:14;;;;;;;11.85;5.68;;;19.10;26.90;;;;;;6248355;28;20057;-71
2022/03/28 22:39:16;;;;;;;11.10;4.88;;;19.00;27.10;;;;;;6250910;28;20034;-70
2022/03/28 22:42:17;;;;;;;12.60;5.15;;;19.00;27.20;;;;;;6234545;28;20033;-70
2022/03/28 22:45:18;;;;;;;11.40;5.05;;;19.00;27.30;;;;;;6234659;28;20037;-70
2022/03/28 22:48:19;;;;;;;10.55;5.40;;;19.00;27.40;;;;;;6251726;28;20113;-71
2022/03/28 22:51:19;;;;;;;13.32;5.53;;;19.00;27.40;;;;;;6234512;28;20063;-70
2022/03/28 22:54:20;;;;;;;9.63;5.15;;;19.00;27.50;;;;;;6234152;28;20255;-71
2022/03/28 22:57:21;;;;;;;11.93;5.03;;;19.00;27.50;;;;;;6231920;28;20042;-71
2022/03/28 23:00:23;;;;;;;13.35;4.85;;;18.90;27.70;;;;;;6234063;28;20035;-71
2022/03/28 23:03:24;;;;;;;14.05;5.63;;;18.90;27.70;;;;;;6250831;28;20049;-71
2022/03/28 23:06:25;;;;;;;13.80;5.03;;;18.90;27.70;;;;;;6249214;28;20082;-70
2022/03/28 23:09:26;;;;;;;9.13;4.38;;;18.90;27.90;;;;;;6233880;28;20037;-71
2022/03/28 23:12:28;;;;;;;12.38;5.25;;;18.90;27.90;;;;;;6216939;28;20462;-71
2022/03/28 23:15:29;;;;;;;10.23;5.40;;;18.90;28.10;;;;;;6251363;28;20052;-70
2022/03/28 23:18:30;;;;;;;11.70;5.18;;;18.80;28.20;;;;;;6223154;28;20065;-70
2022/03/28 23:21:31;;;;;;;11.25;5.32;;;18.80;28.50;;;;;;6233156;28;20025;-70
2022/03/28 23:24:32;;;;;;;11.43;5.00;;;18.80;28.60;;;;;;6244462;28;20052;-70
2022/03/28 23:27:32;;;;;;;10.30;5.15;;;18.70;28.50;;;;;;6233382;28;20033;-69
2022/03/28 23:30:33;;;;;;;16.33;5.38;;;18.70;28.60;;;;;;6233143;28;20041;-70
2022/03/28 23:33:34;;;;;;;13.23;5.00;;;18.70;28.60;;;;;;6232375;28;20041;-71
2022/03/28 23:36:35;;;;;;;10.30;4.82;;;18.70;28.60;;;;;;6232489;28;20107;-70
2022/03/28 23:39:36;;;;;;;11.10;5.40;;;18.70;28.70;;;;;;6233255;28;20052;-70
2022/03/28 23:42:37;;;;;;;12.82;5.72;;;18.70;28.80;;;;;;6232237;28;20474;-71
2022/03/28 23:45:38;;;;;;;16.45;5.13;;;18.60;28.80;;;;;;6249457;28;20052;-70
2022/03/28 23:48:38;;;;;;;18.00;5.57;;;18.60;28.90;;;;;;6231936;28;20046;-70
2022/03/28 23:51:39;;;;;;;10.82;5.15;;;18.60;29.10;;;;;;6250607;28;20493;-70
2022/03/28 23:54:40;;;;;;;13.13;4.95;;;18.50;29.10;;;;;;6232964;28;20034;-71
2022/03/28 23:57:41;;;;;;;13.93;5.72;;;18.50;29.10;;;;;;6250304;28;20038;-70
